Time;durP1;ratioP1;P1;durP2;ratioP2;P2;SDS_P1;SDS_P2;PMS_P1;PMS_P2;Temp;Humidity;BMP_temperature;BMP_pressure;BME280_temperature;BME280_humidity;BME280_pressure;Samples;Min_cycle;Max_cycle;Signal;HPM_P1;HPM_P2
2023/10/05 00:01:27;;;;;;;6.10;5.23;;;16.00;99.90;;;;;;5034991;28;20467;-90
2023/10/05 00:04:02;;;;;;;7.33;5.60;;;16.00;99.90;;;;;;5036717;28;21201;-90
2023/10/05 00:06:32;;;;;;;7.87;5.03;;;15.90;99.90;;;;;;5040260;28;20498;-90
2023/10/05 00:08:59;;;;;;;7.63;6.50;;;15.90;99.90;;;;;;5047968;28;20472;-90
2023/10/05 00:11:29;;;;;;;10.87;8.60;;;15.90;99.90;;;;;;5054721;28;20448;-90
2023/10/05 00:13:58;;;;;;;8.37;6.13;;;15.90;99.90;;;;;;5036952;28;20510;-89
2023/10/05 00:16:36;;;;;;;7.03;5.77;;;15.90;99.90;;;;;;5046831;28;20472;-89
2023/10/05 00:19:16;;;;;;;9.30;6.27;;;15.90;99.90;;;;;;5035362;28;20471;-91
2023/10/05 00:21:56;;;;;;;8.07;6.43;;;15.80;99.90;;;;;;5033144;28;20542;-91
2023/10/05 00:24:35;;;;;;;8.33;5.40;;;15.80;99.90;;;;;;5131808;22;20432;-90
2023/10/05 00:27:08;;;;;;;9.73;6.40;;;15.80;99.90;;;;;;5054370;28;20489;-85
2023/10/05 00:29:46;;;;;;;7.10;5.63;;;15.70;99.90;;;;;;5033157;28;20470;-85
2023/10/05 00:32:20;;;;;;;6.53;5.17;;;15.80;99.90;;;;;;5027170;28;20566;-90
2023/10/05 00:34:52;;;;;;;5.73;5.10;;;15.80;99.90;;;;;;5015800;28;20543;-87
2023/10/05 00:37:22;;;;;;;11.57;6.90;;;15.80;99.90;;;;;;4995005;28;20469;-85
2023/10/05 00:39:50;;;;;;;6.87;4.70;;;15.80;99.90;;;;;;5014832;28;20475;-90
2023/10/05 00:42:24;;;;;;;7.43;5.60;;;15.80;99.90;;;;;;5012855;28;21010;-87
2023/10/05 00:45:05;;;;;;;8.03;5.23;;;15.80;99.90;;;;;;5014202;28;20549;-85
2023/10/05 00:47:33;;;;;;;7.47;6.00;;;15.80;99.90;;;;;;5004076;28;21001;-84
2023/10/05 00:56:04;;;;;;;6.93;4.90;;;15.80;99.90;;;;;;5009741;28;20465;-85
2023/10/05 00:58:42;;;;;;;6.70;5.73;;;15.80;99.90;;;;;;5014112;28;20464;-86
2023/10/05 01:01:15;;;;;;;6.87;5.20;;;15.80;99.90;;;;;;5004522;28;20532;-86
2023/10/05 01:04:24;;;;;;;7.50;5.33;;;15.80;99.90;;;;;;5013663;28;20469;-87
2023/10/05 01:06:57;;;;;;;5.50;5.00;;;15.80;99.90;;;;;;5014954;28;20480;-86
2023/10/05 01:09:55;;;;;;;9.90;5.00;;;15.80;99.90;;;;;;5033241;28;20554;-88
2023/10/05 01:12:45;;;;;;;9.63;5.30;;;15.80;99.90;;;;;;5033321;28;20779;-89
2023/10/05 01:15:31;;;;;;;8.00;5.47;;;15.80;99.90;;;;;;5007031;28;20477;-88
2023/10/05 01:17:59;;;;;;;9.47;5.10;;;15.90;99.90;;;;;;5015065;28;20967;-84
2023/10/05 01:20:31;;;;;;;6.40;4.37;;;15.80;99.90;;;;;;5024349;28;20456;-85
2023/10/05 01:23:04;;;;;;;9.00;5.03;;;15.70;99.90;;;;;;5034567;28;20559;-90
2023/10/05 01:25:43;;;;;;;7.67;4.87;;;15.70;99.90;;;;;;5033983;28;20930;-89
2023/10/05 01:28:14;;;;;;;7.20;4.73;;;15.70;99.90;;;;;;5012459;28;20476;-84
2023/10/05 01:30:41;;;;;;;5.37;4.70;;;15.60;99.90;;;;;;5034121;28;20478;-84
2023/10/05 01:33:14;;;;;;;10.10;5.53;;;15.70;99.90;;;;;;5022378;28;20482;-84
2023/10/05 01:35:43;;;;;;;8.37;5.53;;;15.60;99.90;;;;;;5039336;28;20503;-90
2023/10/05 01:38:13;;;;;;;7.20;4.60;;;15.60;99.90;;;;;;5035893;28;20449;-85
2023/10/05 01:40:47;;;;;;;8.97;5.77;;;15.60;99.90;;;;;;5023645;28;20562;-90
2023/10/05 01:43:29;;;;;;;82.50;62.67;;;15.70;99.90;;;;;;5003091;28;20583;-88
2023/10/05 01:45:59;;;;;;;8.07;6.90;;;15.70;99.90;;;;;;5012640;28;20491;-86
2023/10/05 01:49:21;;;;;;;9.97;4.87;;;15.70;99.90;;;;;;5001085;28;20845;-85
2023/10/05 01:51:52;;;;;;;6.60;4.33;;;15.80;99.90;;;;;;4930886;29;20472;-88
2023/10/05 01:54:43;;;;;;;10.30;5.80;;;15.70;99.90;;;;;;4933644;29;20567;-88
2023/10/05 01:57:16;;;;;;;5.40;4.20;;;15.70;99.90;;;;;;4986573;28;20457;-84
2023/10/05 02:00:03;;;;;;;5.60;4.50;;;15.60;99.90;;;;;;5012993;28;20909;-84
2023/10/05 02:02:36;;;;;;;6.90;4.53;;;15.60;99.90;;;;;;5003504;28;20476;-87
2023/10/05 02:05:07;;;;;;;6.83;4.63;;;15.60;99.90;;;;;;5013043;28;20504;-89
2023/10/05 02:07:35;;;;;;;9.67;5.37;;;15.60;99.90;;;;;;5015142;28;20930;-88
2023/10/05 02:10:13;;;;;;;8.30;5.33;;;15.60;99.90;;;;;;5007546;28;20480;-88
2023/10/05 02:13:00;;;;;;;6.17;4.40;;;15.60;99.90;;;;;;5016304;28;20565;-89
2023/10/05 02:15:33;;;;;;;4.93;4.10;;;15.60;99.90;;;;;;5006143;28;20484;-86
2023/10/05 02:18:18;;;;;;;5.30;4.00;;;15.50;99.90;;;;;;5007691;28;20958;-85
2023/10/05 02:21:05;;;;;;;6.17;4.30;;;15.60;99.90;;;;;;5003226;28;20573;-85
2023/10/05 02:23:41;;;;;;;11.27;4.83;;;15.60;99.90;;;;;;5017153;28;20465;-86
2023/10/05 02:26:23;;;;;;;6.20;5.43;;;15.60;99.90;;;;;;5006127;28;20477;-86
2023/10/05 02:28:51;;;;;;;8.83;5.80;;;15.60;99.90;;;;;;5016177;28;20475;-86
2023/10/05 02:31:21;;;;;;;9.90;5.50;;;15.50;99.90;;;;;;5009034;28;20468;-89
2023/10/05 02:33:52;;;;;;;7.77;4.87;;;15.60;99.90;;;;;;5009529;28;20468;-89
2023/10/05 02:36:26;;;;;;;8.40;4.90;;;15.60;99.90;;;;;;5014769;28;20488;-88
2023/10/05 02:38:56;;;;;;;5.97;4.13;;;15.60;99.90;;;;;;5038962;28;20440;-88
2023/10/05 02:41:37;;;;;;;10.23;3.80;;;15.60;99.90;;;;;;5026388;28;20469;-88
2023/10/05 02:44:19;;;;;;;6.43;4.07;;;15.60;99.90;;;;;;5010456;28;20504;-85
2023/10/05 02:46:49;;;;;;;8.60;4.07;;;15.60;99.90;;;;;;5005671;28;20552;-86
2023/10/05 02:49:18;;;;;;;9.23;4.40;;;15.70;99.90;;;;;;5006746;28;20516;-85
2023/10/05 02:51:56;;;;;;;6.53;4.27;;;15.70;99.90;;;;;;5015177;28;20789;-88
2023/10/05 02:54:27;;;;;;;7.77;4.23;;;15.70;99.90;;;;;;5016254;28;20814;-85
2023/10/05 02:56:58;;;;;;;5.43;3.80;;;15.80;99.90;;;;;;5005446;28;20480;-87
2023/10/05 02:59:30;;;;;;;9.03;5.30;;;15.80;99.90;;;;;;5005151;28;20502;-84
2023/10/05 03:02:00;;;;;;;8.30;5.10;;;15.80;99.90;;;;;;5015293;28;20473;-85
2023/10/05 03:07:14;;;;;;;5.73;3.80;;;15.80;99.90;;;;;;5005225;28;20450;-85
2023/10/05 03:09:44;;;;;;;6.97;4.00;;;15.80;99.90;;;;;;5014632;28;21029;-85
2023/10/05 03:12:20;;;;;;;12.10;5.00;;;15.90;99.90;;;;;;5004670;28;20552;-85
2023/10/05 03:14:50;;;;;;;9.37;3.90;;;15.90;99.90;;;;;;5015048;28;20480;-88
2023/10/05 03:17:20;;;;;;;5.00;4.00;;;15.90;99.90;;;;;;5015412;28;20456;-85
2023/10/05 03:19:51;;;;;;;8.03;4.70;;;15.90;99.90;;;;;;5013664;28;20565;-88
2023/10/05 03:22:23;;;;;;;6.37;4.00;;;15.90;99.90;;;;;;5015188;28;20468;-88
2023/10/05 03:24:50;;;;;;;9.23;3.70;;;15.70;99.90;;;;;;5004587;28;20560;-86
2023/10/05 03:27:28;;;;;;;7.80;4.57;;;15.70;99.90;;;;;;5014526;28;20794;-86
2023/10/05 03:30:01;;;;;;;8.17;3.87;;;15.70;99.90;;;;;;5015489;28;20480;-85
2023/10/05 03:32:31;;;;;;;7.90;4.10;;;15.70;99.90;;;;;;5015050;28;20939;-89
2023/10/05 03:34:58;;;;;;;8.97;3.47;;;15.70;99.90;;;;;;5015258;28;20480;-89
2023/10/05 03:37:29;;;;;;;6.00;4.20;;;15.70;99.90;;;;;;5005333;28;20477;-86
2023/10/05 03:40:06;;;;;;;5.20;3.70;;;15.80;99.90;;;;;;5006297;28;20504;-89
2023/10/05 03:43:08;;;;;;;;;;;;;;;;;;;;;
2023/10/05 03:45:42;;;;;;;4.40;3.20;;;15.90;99.90;;;;;;4998740;28;20476;-86
2023/10/05 03:48:37;;;;;;;5.37;3.83;;;15.90;99.90;;;;;;5013823;28;20468;-86
2023/10/05 03:51:15;;;;;;;6.50;3.90;;;15.90;99.90;;;;;;5006346;28;21003;-86
2023/10/05 03:53:59;;;;;;;8.57;3.93;;;15.90;99.90;;;;;;5005936;28;20483;-89
2023/10/05 03:56:29;;;;;;;6.37;3.90;;;15.90;99.90;;;;;;5006724;28;20540;-89
2023/10/05 03:59:31;;;;;;;9.93;4.50;;;15.90;99.90;;;;;;4985360;28;20524;-86
2023/10/05 04:02:07;;;;;;;8.43;5.50;;;15.90;99.90;;;;;;5014237;28;20977;-89
2023/10/05 04:04:37;;;;;;;8.43;4.80;;;15.90;99.90;;;;;;5015038;28;20483;-89
2023/10/05 04:07:08;;;;;;;5.83;4.33;;;15.90;99.90;;;;;;5014249;28;20480;-89
2023/10/05 04:09:39;;;;;;;9.37;4.17;;;15.90;99.90;;;;;;5004551;28;20485;-89
2023/10/05 04:12:10;;;;;;;8.50;4.20;;;15.80;99.90;;;;;;5003052;28;20484;-89
2023/10/05 04:14:46;;;;;;;8.63;4.47;;;15.70;99.90;;;;;;5013329;28;20479;-89
2023/10/05 04:17:24;;;;;;;16.90;4.67;;;15.70;99.90;;;;;;5013963;28;20484;-86
2023/10/05 04:20:00;;;;;;;7.30;4.00;;;15.70;99.90;;;;;;5014390;28;20480;-85
2023/10/05 04:23:01;;;;;;;13.00;4.17;;;15.70;99.90;;;;;;5003989;28;20460;-85
2023/10/05 04:25:33;;;;;;;7.60;4.13;;;15.70;99.90;;;;;;5013694;28;20481;-85
2023/10/05 04:30:49;;;;;;;6.60;4.17;;;15.70;99.90;;;;;;5002796;28;20482;-85
2023/10/05 04:33:18;;;;;;;7.17;4.10;;;15.60;99.90;;;;;;5003833;28;20453;-85
2023/10/05 04:35:46;;;;;;;10.00;5.27;;;15.60;99.90;;;;;;5014517;28;20473;-88
2023/10/05 04:38:15;;;;;;;5.30;4.07;;;15.50;99.90;;;;;;5013627;28;20473;-86
2023/10/05 04:40:48;;;;;;;7.20;5.00;;;15.50;99.90;;;;;;5004096;28;20484;-89
2023/10/05 04:43:19;;;;;;;7.23;4.30;;;15.50;99.90;;;;;;5013129;28;20463;-86
2023/10/05 04:45:51;;;;;;;9.97;4.40;;;15.50;99.90;;;;;;5014429;28;20465;-89
2023/10/05 04:48:31;;;;;;;11.60;4.97;;;15.50;99.90;;;;;;5004127;28;20482;-88
2023/10/05 04:51:05;;;;;;;6.63;4.13;;;15.60;99.90;;;;;;5013541;28;20488;-85
2023/10/05 04:53:37;;;;;;;9.60;4.50;;;15.60;99.90;;;;;;5034710;28;20604;-88
2023/10/05 04:56:34;;;;;;;8.23;4.57;;;15.50;99.90;;;;;;5008529;28;20870;-89
2023/10/05 04:59:25;;;;;;;6.90;4.43;;;15.50;99.90;;;;;;5002937;28;20472;-89
2023/10/05 05:02:17;;;;;;;6.80;4.07;;;15.50;99.90;;;;;;5007832;28;20853;-88
2023/10/05 05:10:22;;;;;;;10.27;6.00;;;15.60;99.90;;;;;;4992979;28;20481;-88
2023/10/05 05:12:50;;;;;;;9.47;7.40;;;15.60;99.90;;;;;;5003396;28;20481;-88
2023/10/05 05:15:35;;;;;;;8.97;4.30;;;15.60;99.90;;;;;;5012675;28;20564;-88
2023/10/05 05:18:04;;;;;;;7.20;4.17;;;15.60;99.90;;;;;;5003610;28;20785;-85
2023/10/05 05:20:37;;;;;;;6.50;4.57;;;15.60;99.90;;;;;;5011799;28;20473;-85
2023/10/05 05:23:28;;;;;;;;;;;;;;;;;;;;;
2023/10/05 05:26:18;;;;;;;10.27;5.00;;;15.60;99.90;;;;;;5002108;28;20477;-88
2023/10/05 05:29:18;;;;;;;8.20;4.60;;;15.60;99.90;;;;;;4992181;28;20488;-88
2023/10/05 05:31:49;;;;;;;11.03;6.47;;;15.70;99.90;;;;;;4991057;28;20877;-89
2023/10/05 05:34:38;;;;;;;10.17;5.17;;;15.60;99.90;;;;;;5011873;28;20477;-87
2023/10/05 05:37:40;;;;;;;;;;;;;;;;;;;;;
2023/10/05 05:40:36;;;;;;;10.67;5.80;;;15.70;99.90;;;;;;4927273;29;20883;-89
2023/10/05 05:43:18;;;;;;;;;;;;;;;;;;;;;
2023/10/05 05:49:29;;;;;;;7.10;4.50;;;15.70;99.90;;;;;;4951765;29;20494;-89
2023/10/05 05:55:43;;;;;;;;;;;;;;;;;;;;;
2023/10/05 06:07:25;;;;;;;7.03;5.17;;;15.90;99.90;;;;;;5041026;23;20494;-88
2023/10/05 06:10:38;;;;;;;5.07;4.20;;;15.90;99.90;;;;;;5015515;28;20476;-88
2023/10/05 06:13:32;;;;;;;;;;;;;;;;;;;;;
2023/10/05 06:19:38;;;;;;;;;;;;;;;;;;;;;
2023/10/05 06:22:36;;;;;;;9.63;6.73;;;16.10;99.90;;;;;;5032504;28;20557;-85
2023/10/05 06:25:32;;;;;;;11.27;5.80;;;16.10;99.90;;;;;;5012409;28;20467;-85
2023/10/05 06:33:46;;;;;;;10.50;5.33;;;16.00;99.90;;;;;;5030133;28;20456;-85
2023/10/05 06:36:30;;;;;;;12.53;5.00;;;16.00;99.90;;;;;;5021203;28;20472;-86
2023/10/05 06:39:16;;;;;;;;;;;;;;;;;;;;;
2023/10/05 06:45:19;;;;;;;;;;;;;;;;;;;;;
2023/10/05 06:48:23;;;;;;;;;;;;;;;;;;;;;
2023/10/05 06:51:16;;;;;;;10.03;5.57;;;16.20;99.90;;;;;;5036066;28;20910;-88
2023/10/05 06:56:48;;;;;;;5.40;4.50;;;16.30;99.90;;;;;;4990435;28;20565;-86
2023/10/05 07:33:43;;;;;;;8.27;4.67;;;16.70;99.90;;;;;;4838255;29;20487;-88
2023/10/05 07:43:32;;;;;;;8.13;4.87;;;16.70;99.90;;;;;;4820130;29;20438;-87
2023/10/05 07:59:30;;;;;;;7.97;4.00;;;17.00;99.90;;;;;;4824834;29;20460;-88
2023/10/05 08:02:32;;;;;;;6.20;4.13;;;17.10;99.90;;;;;;4910563;29;20476;-87
2023/10/05 08:09:13;;;;;;;;;;;;;;;;;;;;;
2023/10/05 08:11:42;;;;;;;7.13;3.90;;;17.30;99.90;;;;;;4965112;28;20475;-88
2023/10/05 08:14:17;;;;;;;5.57;3.20;;;17.40;99.90;;;;;;4979373;28;20559;-86
2023/10/05 08:20:08;;;;;;;6.30;4.17;;;17.50;99.90;;;;;;5012237;28;20847;-88
2023/10/05 08:26:04;;;;;;;5.57;3.83;;;17.60;99.90;;;;;;5002227;28;20942;-88
2023/10/05 08:33:11;;;;;;;4.30;3.20;;;17.60;99.90;;;;;;4910723;28;20492;-89
2023/10/05 08:36:17;;;;;;;7.77;3.40;;;17.70;99.90;;;;;;4823747;29;20677;-88
2023/10/05 08:42:27;;;;;;;7.77;3.40;;;17.70;99.90;;;;;;4887237;28;20464;-87
2023/10/05 08:48:29;;;;;;;9.13;3.70;;;17.80;99.90;;;;;;4950836;28;20479;-85
2023/10/05 08:51:12;;;;;;;5.50;3.77;;;17.90;99.90;;;;;;4947448;28;20482;-84
2023/10/05 09:18:36;;;;;;;6.13;4.00;;;18.50;99.90;;;;;;4918353;29;20449;-86
2023/10/05 09:24:46;;;;;;;4.27;3.70;;;18.50;99.90;;;;;;4920494;23;20591;-87
2023/10/05 09:27:17;;;;;;;6.30;3.87;;;18.60;99.90;;;;;;5020613;28;20534;-88
2023/10/05 09:30:30;;;;;;;9.77;4.60;;;18.60;99.90;;;;;;5013641;28;20530;-88
2023/10/05 09:36:53;;;;;;;5.80;4.13;;;18.50;99.90;;;;;;4790407;29;20560;-85
2023/10/05 09:39:59;;;;;;;8.83;4.50;;;18.60;99.90;;;;;;4880636;29;20458;-84
2023/10/05 09:49:14;;;;;;;4.93;4.03;;;18.60;99.90;;;;;;4912101;29;20814;-85
2023/10/05 09:52:19;;;;;;;9.47;4.80;;;18.60;99.90;;;;;;4939995;29;20472;-87
2023/10/05 09:54:49;;;;;;;8.10;4.87;;;18.70;99.90;;;;;;4931665;29;20472;-86
2023/10/05 09:57:23;;;;;;;6.53;4.67;;;18.70;99.90;;;;;;4910457;29;21079;-85
2023/10/05 10:00:16;;;;;;;6.43;5.20;;;18.70;99.90;;;;;;4955672;28;20461;-87
2023/10/05 10:02:52;;;;;;;6.20;4.27;;;18.70;99.90;;;;;;5012414;28;20469;-85
2023/10/05 10:06:12;;;;;;;7.47;4.17;;;18.70;99.90;;;;;;4987712;28;20483;-87
2023/10/05 10:18:37;;;;;;;6.17;3.97;;;18.70;99.90;;;;;;5632601;22;20447;-87
2023/10/05 10:21:24;;;;;;;7.80;4.47;;;18.60;99.90;;;;;;5052822;28;20463;-87
2023/10/05 10:26:26;;;;;;;7.20;4.40;;;18.60;99.90;;;;;;5374248;22;21027;-88
2023/10/05 10:28:58;;;;;;;6.00;4.57;;;18.60;99.90;;;;;;5044137;28;20478;-87
2023/10/05 10:31:33;;;;;;;7.63;5.00;;;18.50;99.90;;;;;;5056314;28;20467;-88
2023/10/05 10:34:17;;;;;;;5.43;3.90;;;18.50;99.90;;;;;;5055751;28;20794;-87
2023/10/05 10:36:51;;;;;;;9.50;4.20;;;18.50;99.90;;;;;;5035737;28;20606;-86
2023/10/05 10:39:32;;;;;;;7.57;4.40;;;18.50;99.90;;;;;;5035675;28;20521;-85
2023/10/05 10:43:06;;;;;;;6.37;4.93;;;18.40;99.90;;;;;;5016677;28;20530;-87
2023/10/05 10:45:46;;;;;;;7.83;4.80;;;18.40;99.90;;;;;;5025812;28;20520;-88
2023/10/05 10:49:10;;;;;;;10.00;5.30;;;18.30;99.90;;;;;;4998638;28;20539;-85
2023/10/05 10:52:10;;;;;;;6.00;4.30;;;18.30;99.90;;;;;;5024146;28;20472;-85
2023/10/05 10:54:48;;;;;;;4.50;4.10;;;18.30;99.90;;;;;;5025223;28;20473;-86
2023/10/05 10:57:36;;;;;;;4.60;3.97;;;18.20;99.90;;;;;;5035505;28;21005;-88
2023/10/05 11:03:09;;;;;;;4.53;4.03;;;18.20;99.90;;;;;;5034548;28;20459;-86
2023/10/05 11:37:15;;;;;;;6.90;3.87;;;18.20;99.90;;;;;;5110190;22;20490;-88
2023/10/05 12:05:03;;;;;;;4.63;3.87;;;18.00;99.90;;;;;;4907794;29;20540;-86
2023/10/05 13:17:15;;;;;;;2.40;1.40;;;17.30;99.90;;;;;;3199002;26;20518;-88
2023/10/05 13:20:15;;;;;;;;;;;;;;;;;;;;;
2023/10/05 14:59:29;;;;;;;3.37;2.67;;;16.40;99.90;;;;;;5186918;22;20805;-86
2023/10/05 15:45:40;;;;;;;2.03;1.83;;;16.10;99.90;;;;;;4895361;29;20547;-90
2023/10/05 15:50:58;;;;;;;3.60;2.43;;;16.00;99.90;;;;;;5026073;28;20807;-87
2023/10/05 15:53:37;;;;;;;3.77;2.73;;;16.10;99.90;;;;;;5041540;28;20475;-85
2023/10/05 15:56:09;;;;;;;3.07;2.77;;;16.00;99.90;;;;;;5029248;28;20479;-90
2023/10/05 15:58:59;;;;;;;3.00;2.27;;;16.10;99.90;;;;;;5056606;28;20454;-86
2023/10/05 16:01:49;;;;;;;3.20;2.03;;;16.00;99.90;;;;;;5054876;28;20463;-88
2023/10/05 17:35:25;;;;;;;3.60;2.73;;;15.40;99.90;;;;;;5050394;28;20475;-85
2023/10/05 17:41:20;;;;;;;7.30;2.50;;;15.40;99.90;;;;;;5048328;28;20505;-87
2023/10/05 17:43:59;;;;;;;3.40;2.90;;;15.30;99.90;;;;;;5056542;28;20523;-88
2023/10/05 17:50:02;;;;;;;2.20;1.90;;;15.30;99.90;;;;;;4989300;28;20473;-88
2023/10/05 17:52:45;;;;;;;3.43;1.93;;;15.30;99.90;;;;;;4993630;28;20481;-88
2023/10/05 17:55:14;;;;;;;3.67;2.40;;;15.50;99.90;;;;;;5054619;28;20981;-84
2023/10/05 18:04:50;;;;;;;7.20;2.10;;;16.20;99.90;;;;;;5055419;28;20554;-87
2023/10/05 18:07:19;;;;;;;3.40;2.00;;;16.60;99.90;;;;;;5015582;28;20471;-87
2023/10/05 18:13:21;;;;;;;8.80;6.17;;;17.10;99.90;;;;;;4942989;28;20545;-79
2023/10/05 18:15:51;;;;;;;4.07;3.50;;;17.20;99.90;;;;;;4965994;28;20478;-80
2023/10/05 18:18:18;;;;;;;5.23;4.20;;;17.30;99.90;;;;;;5040312;28;20467;-86
2023/10/05 18:20:46;;;;;;;3.27;2.97;;;17.20;99.90;;;;;;5054290;28;20812;-80
2023/10/05 18:23:14;;;;;;;3.00;2.67;;;17.20;99.90;;;;;;5053453;28;20958;-86
2023/10/05 18:26:21;;;;;;;3.10;2.57;;;17.00;99.90;;;;;;5045581;28;20557;-87
2023/10/05 18:28:51;;;;;;;2.90;2.60;;;16.90;99.90;;;;;;5060212;28;20980;-86
2023/10/05 18:31:27;;;;;;;2.90;2.30;;;16.80;99.90;;;;;;5052440;28;20466;-85
2023/10/05 18:33:54;;;;;;;7.93;4.00;;;16.70;99.90;;;;;;5053307;28;20453;-85
2023/10/05 18:36:25;;;;;;;3.43;3.10;;;16.60;99.90;;;;;;5056712;28;20493;-88
2023/10/05 18:38:52;;;;;;;6.60;4.73;;;16.50;99.90;;;;;;5054901;28;21295;-88
2023/10/05 18:41:19;;;;;;;4.60;3.50;;;16.40;99.90;;;;;;5050859;28;20474;-86
2023/10/05 18:43:56;;;;;;;4.60;4.10;;;16.30;99.90;;;;;;5053456;28;20482;-87
2023/10/05 18:46:25;;;;;;;3.80;2.77;;;16.20;99.90;;;;;;5067214;28;20553;-88
2023/10/05 18:48:55;;;;;;;4.87;3.07;;;16.10;99.90;;;;;;5055776;28;20509;-86
2023/10/05 18:51:24;;;;;;;5.00;3.90;;;16.00;99.90;;;;;;5060452;28;20848;-87
2023/10/05 18:53:51;;;;;;;3.67;2.93;;;16.00;99.90;;;;;;5061327;28;20529;-79
2023/10/05 18:56:30;;;;;;;5.37;4.10;;;15.90;99.90;;;;;;5056752;28;20510;-85
2023/10/05 18:59:01;;;;;;;5.73;4.53;;;15.90;99.90;;;;;;5049801;28;20536;-89
2023/10/05 19:01:35;;;;;;;7.93;4.10;;;15.80;99.90;;;;;;5061653;28;20535;-81
2023/10/05 19:04:05;;;;;;;3.73;2.70;;;15.80;99.90;;;;;;5048294;28;20488;-81
2023/10/05 19:06:34;;;;;;;7.77;6.43;;;15.70;99.90;;;;;;5060336;28;20478;-81
2023/10/05 19:09:02;;;;;;;8.80;7.13;;;15.70;99.90;;;;;;5055580;28;20550;-80
2023/10/05 19:11:31;;;;;;;3.87;3.47;;;15.70;99.90;;;;;;5048226;28;20547;-87
2023/10/05 19:14:00;;;;;;;5.60;4.67;;;15.70;99.90;;;;;;5036989;28;20548;-81
2023/10/05 19:16:30;;;;;;;6.80;4.50;;;15.60;99.90;;;;;;5062103;28;20479;-88
2023/10/05 19:18:58;;;;;;;8.30;6.83;;;15.60;99.90;;;;;;5047289;28;20530;-88
2023/10/05 19:21:35;;;;;;;8.73;5.80;;;15.60;99.90;;;;;;5058249;28;20530;-88
2023/10/05 19:24:04;;;;;;;5.43;3.90;;;15.60;99.90;;;;;;5053819;28;20461;-79
2023/10/05 19:26:32;;;;;;;4.93;4.50;;;15.60;99.90;;;;;;5058289;28;20474;-87
2023/10/05 19:29:00;;;;;;;6.80;6.00;;;15.60;99.90;;;;;;5064563;28;20467;-88
2023/10/05 19:31:29;;;;;;;6.20;3.37;;;15.60;99.90;;;;;;5055595;28;20471;-80
2023/10/05 19:33:56;;;;;;;5.73;5.23;;;15.60;99.90;;;;;;5054156;28;20459;-79
2023/10/05 19:36:30;;;;;;;4.83;4.33;;;15.60;99.90;;;;;;5048189;28;20470;-86
2023/10/05 19:39:17;;;;;;;7.33;6.20;;;15.50;99.90;;;;;;5052597;28;20474;-87
2023/10/05 19:41:45;;;;;;;10.90;7.90;;;15.50;99.90;;;;;;5052156;28;20856;-88
2023/10/05 19:44:14;;;;;;;6.33;5.70;;;15.50;99.90;;;;;;5055602;28;20973;-88
2023/10/05 19:46:42;;;;;;;13.20;7.97;;;15.50;99.90;;;;;;5053192;28;20477;-79
2023/10/05 19:49:11;;;;;;;5.60;4.50;;;15.50;99.90;;;;;;5052762;28;20506;-82
2023/10/05 19:51:43;;;;;;;6.10;4.73;;;15.50;99.90;;;;;;5059478;28;20477;-88
2023/10/05 19:54:11;;;;;;;8.00;5.70;;;15.40;99.90;;;;;;5055633;28;20496;-87
2023/10/05 19:56:41;;;;;;;8.60;6.40;;;15.40;99.90;;;;;;5055689;28;21110;-88
2023/10/05 19:59:11;;;;;;;6.03;5.47;;;15.40;99.90;;;;;;5044703;28;20475;-87
2023/10/05 20:04:33;;;;;;;8.20;6.47;;;15.40;99.90;;;;;;5038112;28;20891;-80
2023/10/05 20:07:01;;;;;;;8.63;6.83;;;15.40;99.90;;;;;;5042356;28;20456;-80
2023/10/05 20:09:34;;;;;;;7.33;5.80;;;15.50;99.90;;;;;;5051576;28;20574;-85
2023/10/05 20:12:13;;;;;;;13.83;8.93;;;15.40;99.90;;;;;;5053814;28;20463;-88
2023/10/05 20:14:44;;;;;;;7.80;6.10;;;15.40;99.90;;;;;;5048212;28;20476;-87
2023/10/05 20:17:14;;;;;;;6.80;6.20;;;15.40;99.90;;;;;;5051896;28;20805;-87
2023/10/05 20:19:42;;;;;;;13.60;10.17;;;15.40;99.90;;;;;;5043798;28;20568;-86
2023/10/05 20:22:19;;;;;;;8.03;7.33;;;15.40;99.90;;;;;;5069467;28;20467;-79
2023/10/05 20:24:48;;;;;;;9.60;7.60;;;15.40;99.90;;;;;;5048768;28;20493;-80
2023/10/05 20:27:18;;;;;;;11.17;9.97;;;15.40;99.90;;;;;;5029808;28;20468;-80
2023/10/05 20:29:46;;;;;;;12.83;11.03;;;15.40;99.90;;;;;;5049023;28;20960;-79
2023/10/05 20:32:15;;;;;;;12.27;11.00;;;15.40;99.90;;;;;;5049231;28;20490;-79
2023/10/05 20:34:48;;;;;;;8.73;7.83;;;15.40;99.90;;;;;;5052448;28;20952;-85
2023/10/05 20:37:17;;;;;;;8.93;8.07;;;15.40;99.90;;;;;;5051003;28;20557;-87
2023/10/05 20:39:45;;;;;;;9.47;8.43;;;15.40;99.90;;;;;;5052032;28;20479;-81
2023/10/05 20:42:19;;;;;;;14.40;11.53;;;15.40;99.90;;;;;;5055297;28;20471;-85
2023/10/05 20:44:51;;;;;;;11.23;9.97;;;15.40;99.90;;;;;;5052869;28;20867;-80
2023/10/05 20:47:22;;;;;;;11.33;10.00;;;15.40;99.90;;;;;;5055293;28;20533;-86
2023/10/05 20:49:51;;;;;;;8.77;7.87;;;15.40;99.90;;;;;;5054872;28;20471;-86
2023/10/05 20:52:18;;;;;;;9.20;8.30;;;15.40;99.90;;;;;;5044523;28;20486;-79
2023/10/05 20:54:55;;;;;;;11.67;10.53;;;15.40;99.90;;;;;;5047809;28;20483;-85
2023/10/05 20:57:24;;;;;;;9.10;8.00;;;15.40;99.90;;;;;;5050964;28;20487;-80
2023/10/05 20:59:53;;;;;;;17.77;13.87;;;15.40;99.90;;;;;;5052372;28;20463;-86
2023/10/05 21:02:23;;;;;;;12.53;11.37;;;15.40;99.90;;;;;;5052999;28;20480;-86
2023/10/05 21:04:50;;;;;;;21.53;17.63;;;15.30;99.90;;;;;;5049955;28;20452;-85
2023/10/05 21:07:19;;;;;;;14.87;12.97;;;15.40;99.90;;;;;;5051900;28;20475;-86
2023/10/05 21:09:50;;;;;;;15.07;12.90;;;15.40;99.90;;;;;;5043971;28;20504;-80
2023/10/05 21:12:19;;;;;;;12.73;11.37;;;15.40;99.90;;;;;;5054735;28;20467;-79
2023/10/05 21:14:48;;;;;;;15.77;14.17;;;15.40;99.90;;;;;;5054012;28;20482;-85
2023/10/05 21:17:17;;;;;;;13.90;12.43;;;15.40;99.90;;;;;;5054583;28;20479;-85
2023/10/05 21:19:44;;;;;;;16.13;13.53;;;15.40;99.90;;;;;;5064830;28;20463;-87
2023/10/05 21:22:11;;;;;;;17.03;15.13;;;15.40;99.90;;;;;;5052275;28;20502;-86
2023/10/05 21:24:45;;;;;;;18.40;15.10;;;15.40;99.90;;;;;;5051556;28;20471;-79
2023/10/05 21:27:14;;;;;;;22.33;16.83;;;15.50;99.90;;;;;;5039905;28;20975;-80
2023/10/05 21:29:43;;;;;;;20.17;16.40;;;15.50;99.90;;;;;;5048049;28;20495;-87
2023/10/05 21:32:16;;;;;;;16.03;13.93;;;15.50;99.90;;;;;;5051576;28;20825;-79
2023/10/05 21:34:44;;;;;;;22.03;19.83;;;15.50;99.90;;;;;;5046043;28;20479;-80
2023/10/05 21:37:11;;;;;;;19.37;17.30;;;15.50;99.90;;;;;;5060826;28;21018;-80
2023/10/05 21:39:41;;;;;;;31.77;23.40;;;15.50;99.90;;;;;;5058573;28;21041;-86
2023/10/05 21:42:20;;;;;;;30.00;26.63;;;15.60;99.90;;;;;;5033851;28;20482;-80
2023/10/05 21:44:50;;;;;;;19.13;17.03;;;15.50;99.90;;;;;;5044716;28;20562;-79
2023/10/05 21:47:22;;;;;;;16.10;14.40;;;15.50;99.90;;;;;;5047793;28;20928;-80
2023/10/05 21:49:49;;;;;;;21.20;16.73;;;15.60;99.90;;;;;;5046675;28;20471;-84
2023/10/05 21:52:16;;;;;;;16.23;14.53;;;15.60;99.90;;;;;;5046735;28;20492;-79
2023/10/05 21:54:44;;;;;;;16.10;14.60;;;15.60;99.90;;;;;;5048042;28;20474;-90
2023/10/05 21:57:11;;;;;;;58.47;38.50;;;15.60;99.90;;;;;;5045756;28;20472;-78
2023/10/05 21:59:38;;;;;;;19.40;15.30;;;15.60;99.90;;;;;;5047805;28;20475;-78
2023/10/05 22:02:07;;;;;;;23.73;19.70;;;15.60;99.90;;;;;;5040493;28;20549;-79
2023/10/05 22:04:35;;;;;;;19.87;17.77;;;15.60;99.90;;;;;;5051293;28;20479;-79
2023/10/05 22:07:09;;;;;;;17.20;15.37;;;15.60;99.90;;;;;;5047958;28;20458;-79
2023/10/05 22:09:37;;;;;;;28.53;24.03;;;15.60;99.90;;;;;;5050054;28;20992;-80
2023/10/05 22:12:08;;;;;;;20.23;16.30;;;15.60;99.90;;;;;;5055247;28;20474;-89
2023/10/05 22:14:35;;;;;;;22.40;19.80;;;15.60;99.90;;;;;;5052913;28;20470;-79
2023/10/05 22:17:02;;;;;;;16.20;14.50;;;15.60;99.90;;;;;;5050633;28;20489;-88
2023/10/05 22:19:30;;;;;;;17.63;15.93;;;15.60;99.90;;;;;;5056746;28;20524;-89
2023/10/05 22:21:59;;;;;;;17.90;16.10;;;15.60;99.90;;;;;;5050149;28;20559;-89
2023/10/05 22:24:30;;;;;;;30.27;23.60;;;15.60;99.90;;;;;;5040518;28;20470;-81
2023/10/05 22:26:59;;;;;;;18.17;16.37;;;15.60;99.90;;;;;;5043749;28;20479;-90
2023/10/05 22:29:27;;;;;;;15.70;13.17;;;15.60;99.90;;;;;;5049397;28;20476;-78
2023/10/05 22:31:54;;;;;;;19.67;17.00;;;15.60;99.90;;;;;;5048061;28;20471;-88
2023/10/05 22:34:23;;;;;;;22.93;20.23;;;15.60;99.90;;;;;;5059246;28;20475;-89
2023/10/05 22:36:52;;;;;;;20.10;15.70;;;15.60;99.90;;;;;;5056307;28;20862;-88
2023/10/05 22:39:21;;;;;;;16.00;13.80;;;15.60;99.90;;;;;;5058801;28;20577;-79
2023/10/05 22:41:50;;;;;;;17.37;14.47;;;15.60;99.90;;;;;;5056255;28;20468;-90
2023/10/05 22:44:17;;;;;;;20.20;18.00;;;15.60;99.90;;;;;;5054127;28;20968;-80
2023/10/05 22:46:46;;;;;;;19.53;17.40;;;15.70;99.90;;;;;;5053287;28;20467;-78
2023/10/05 22:49:13;;;;;;;18.87;14.83;;;15.70;99.90;;;;;;5055129;28;20455;-79
2023/10/05 22:51:40;;;;;;;16.73;15.03;;;15.70;99.90;;;;;;5054849;28;20545;-78
2023/10/05 22:54:08;;;;;;;19.60;17.50;;;15.70;99.90;;;;;;5053934;28;20513;-79
2023/10/05 22:56:36;;;;;;;13.17;11.90;;;15.70;99.90;;;;;;5051553;28;20945;-89
2023/10/05 22:59:04;;;;;;;13.63;12.33;;;15.70;99.90;;;;;;5046244;28;20474;-80
2023/10/05 23:01:38;;;;;;;18.47;14.83;;;15.70;99.90;;;;;;5053355;28;20459;-89